createdAt,value
2018-07-03T00:01:57.651Z,1.53
2018-07-03T00:04:25.813Z,1.50
2018-07-03T00:06:54.292Z,1.50
2018-07-03T00:09:22.286Z,1.77
2018-07-03T00:11:50.298Z,1.60
2018-07-03T00:14:18.280Z,1.57
2018-07-03T00:16:51.832Z,1.50
2018-07-03T00:19:19.808Z,1.30
2018-07-03T00:21:47.856Z,1.60
2018-07-03T00:24:15.918Z,1.53
2018-07-03T00:26:43.899Z,1.50
2018-07-03T00:29:11.888Z,1.30
2018-07-03T00:31:39.960Z,1.47
2018-07-03T00:34:07.914Z,1.43
2018-07-03T00:36:35.903Z,1.90
2018-07-03T00:39:05.963Z,1.37
2018-07-03T00:41:34.038Z,1.43
2018-07-03T00:44:02.031Z,1.60
2018-07-03T00:46:30.027Z,1.97
2018-07-03T00:48:58.012Z,1.40
2018-07-03T00:51:26.010Z,1.40
2018-07-03T00:53:53.995Z,1.67
2018-07-03T00:56:21.982Z,1.50
2018-07-03T00:58:49.978Z,1.80
2018-07-03T01:01:17.966Z,1.37
2018-07-03T01:03:45.957Z,1.40
2018-07-03T01:06:13.974Z,1.50
2018-07-03T01:08:41.980Z,1.57
2018-07-03T01:11:09.969Z,1.23
2018-07-03T01:13:38.037Z,1.20
2018-07-03T01:16:06.042Z,1.43
2018-07-03T01:18:34.040Z,1.20
2018-07-03T01:21:02.024Z,1.27
2018-07-03T01:23:30.110Z,1.70
2018-07-03T01:25:58.173Z,1.10
2018-07-03T01:28:26.189Z,1.40
2018-07-03T01:30:54.217Z,1.67
2018-07-03T01:33:22.217Z,1.30
2018-07-03T01:35:50.373Z,1.63
2018-07-03T01:38:18.356Z,1.27
2018-07-03T01:40:46.340Z,1.30
2018-07-03T01:43:14.366Z,1.30
2018-07-03T01:45:42.367Z,1.63
2018-07-03T01:48:10.462Z,1.27
2018-07-03T01:50:38.422Z,1.30
2018-07-03T01:53:06.414Z,1.30
2018-07-03T01:55:34.401Z,1.60
2018-07-03T01:58:02.410Z,1.27
2018-07-03T02:00:30.422Z,1.20
2018-07-03T02:02:58.438Z,1.43
2018-07-03T02:05:26.451Z,1.30
2018-07-03T02:07:55.283Z,1.23
2018-07-03T02:10:23.858Z,0.90
2018-07-03T02:12:52.048Z,1.37
2018-07-03T02:15:20.067Z,0.90
2018-07-03T02:17:48.058Z,1.17
2018-07-03T02:20:16.048Z,1.20
2018-07-03T02:22:44.034Z,1.17
2018-07-03T02:25:12.040Z,1.03
2018-07-03T02:27:40.039Z,1.33
2018-07-03T02:30:08.038Z,1.20
2018-07-03T02:32:36.188Z,1.47
2018-07-03T02:35:04.532Z,1.30
2018-07-03T02:37:32.530Z,1.17
2018-07-03T02:40:00.620Z,1.17
2018-07-03T02:42:28.607Z,1.17
2018-07-03T02:44:56.616Z,1.00
2018-07-03T02:47:24.723Z,1.50
2018-07-03T02:49:52.864Z,1.10
2018-07-03T02:52:20.855Z,1.27
2018-07-03T02:54:49.044Z,1.20
2018-07-03T02:57:17.019Z,0.90
2018-07-03T02:59:45.021Z,1.40
2018-07-03T03:02:13.014Z,1.40
2018-07-03T03:04:41.014Z,1.40
2018-07-03T03:07:09.086Z,1.20
2018-07-03T03:09:37.078Z,1.40
2018-07-03T03:12:05.123Z,1.20
2018-07-03T03:14:33.115Z,0.90
2018-07-03T03:17:01.115Z,1.00
2018-07-03T03:19:29.114Z,1.10
2018-07-03T03:21:57.140Z,1.10
2018-07-03T03:24:25.208Z,1.43
2018-07-03T03:26:53.203Z,1.00
2018-07-03T03:29:21.202Z,1.30
2018-07-03T03:31:49.186Z,1.30
2018-07-03T03:34:17.250Z,0.80
2018-07-03T03:36:45.244Z,0.90
2018-07-03T03:39:13.263Z,1.00
2018-07-03T03:41:41.247Z,1.27
2018-07-03T03:44:09.337Z,1.07
2018-07-03T03:46:37.463Z,0.90
2018-07-03T03:49:05.534Z,1.30
2018-07-03T03:51:33.525Z,1.07
2018-07-03T03:54:01.515Z,1.00
2018-07-03T03:56:29.517Z,1.20
2018-07-03T03:58:57.494Z,1.20
2018-07-03T04:01:25.488Z,0.90
2018-07-03T04:03:53.484Z,1.10
2018-07-03T04:06:21.485Z,1.00
2018-07-03T04:08:49.474Z,1.10
2018-07-03T04:11:17.475Z,1.03
2018-07-03T04:13:45.453Z,1.10
2018-07-03T04:16:13.492Z,1.07
2018-07-03T04:18:41.498Z,1.20
2018-07-03T04:21:09.487Z,1.00
2018-07-03T04:23:38.046Z,1.67
2018-07-03T04:26:06.032Z,1.17
2018-07-03T04:28:34.258Z,1.30
2018-07-03T04:31:02.891Z,1.10
2018-07-03T04:33:30.881Z,0.87
2018-07-03T04:35:59.233Z,1.13
2018-07-03T04:38:27.217Z,1.00
2018-07-03T04:40:55.222Z,0.93
2018-07-03T04:43:23.226Z,1.00
2018-07-03T04:45:51.250Z,1.00
2018-07-03T04:48:19.279Z,1.20
2018-07-03T04:50:47.292Z,1.10
2018-07-03T04:53:15.377Z,1.10
2018-07-03T04:55:43.592Z,1.00
2018-07-03T04:58:11.664Z,0.97
2018-07-03T05:00:39.739Z,1.00
2018-07-03T05:03:07.747Z,1.30
2018-07-03T05:05:35.831Z,1.00
2018-07-03T05:08:03.848Z,0.90
2018-07-03T05:10:31.827Z,1.10
2018-07-03T05:12:59.826Z,1.17
2018-07-03T05:15:27.823Z,1.00
2018-07-03T05:17:55.821Z,1.10
2018-07-03T05:20:23.812Z,1.10
2018-07-03T05:22:51.863Z,1.30
2018-07-03T05:25:19.851Z,1.07
2018-07-03T05:27:47.846Z,0.90
2018-07-03T05:30:15.814Z,1.20
2018-07-03T05:32:43.807Z,1.40
2018-07-03T05:35:11.811Z,2.90
2018-07-03T05:37:39.808Z,1.37
2018-07-03T05:40:07.806Z,1.20
2018-07-03T05:42:35.804Z,1.33
2018-07-03T05:45:03.892Z,1.40
2018-07-03T05:47:32.012Z,1.40
2018-07-03T05:50:00.018Z,1.30
2018-07-03T05:52:28.036Z,1.20
2018-07-03T05:54:56.027Z,0.90
2018-07-03T05:57:24.033Z,1.30
2018-07-03T05:59:52.043Z,1.17
2018-07-03T06:02:20.034Z,1.60
2018-07-03T06:04:48.035Z,1.30
2018-07-03T06:07:16.032Z,1.10
2018-07-03T06:09:44.022Z,1.20
2018-07-03T06:12:12.030Z,1.13
2018-07-03T06:14:40.042Z,1.07
2018-07-03T06:17:08.192Z,1.00
2018-07-03T06:19:36.185Z,1.60
2018-07-03T06:22:04.180Z,1.20
2018-07-03T06:24:32.159Z,1.23
2018-07-03T06:27:00.256Z,1.50
2018-07-03T06:29:28.254Z,1.10
2018-07-03T06:31:56.228Z,1.73
2018-07-03T06:34:24.280Z,1.17
2018-07-03T06:36:52.274Z,1.63
2018-07-03T06:39:20.265Z,1.37
2018-07-03T06:41:48.341Z,1.20
2018-07-03T06:44:16.350Z,1.00
2018-07-03T06:46:44.432Z,1.57
2018-07-03T06:49:12.433Z,1.10
2018-07-03T06:51:40.452Z,1.70
2018-07-03T06:54:08.538Z,1.53
2018-07-03T06:56:36.566Z,1.37
2018-07-03T06:59:04.551Z,0.70
2018-07-03T07:01:32.545Z,1.47
2018-07-03T07:04:00.562Z,1.33
2018-07-03T07:06:28.577Z,0.90
2018-07-03T07:08:56.664Z,1.17
2018-07-03T07:11:24.610Z,1.50
2018-07-03T07:13:52.600Z,1.27
2018-07-03T07:16:20.598Z,1.43
2018-07-03T07:18:48.600Z,1.27
2018-07-03T07:21:16.600Z,1.10
2018-07-03T07:23:44.624Z,1.07
2018-07-03T07:26:12.606Z,1.30
2018-07-03T07:28:40.604Z,1.30
2018-07-03T07:31:08.600Z,1.27
2018-07-03T07:33:36.651Z,0.87
2018-07-03T07:36:04.707Z,1.40
2018-07-03T07:38:32.742Z,1.03
2018-07-03T07:41:00.758Z,1.20
2018-07-03T07:43:28.802Z,1.23
2018-07-03T07:45:57.000Z,1.33
2018-07-03T07:48:25.009Z,1.00
2018-07-03T07:50:53.016Z,1.10
2018-07-03T07:53:21.003Z,1.10
2018-07-03T07:55:48.974Z,0.73
2018-07-03T07:58:16.965Z,0.90
2018-07-03T08:00:44.999Z,1.00
2018-07-03T08:03:12.999Z,1.13
2018-07-03T08:05:41.030Z,1.03
2018-07-03T08:08:09.126Z,1.20
2018-07-03T08:10:37.111Z,0.97
2018-07-03T08:13:05.104Z,1.10
2018-07-03T08:15:33.126Z,0.97
2018-07-03T08:18:01.098Z,1.23
2018-07-03T08:20:29.184Z,1.13
2018-07-03T08:22:57.259Z,1.00
2018-07-03T08:25:25.314Z,1.03
2018-07-03T08:27:53.279Z,0.90
2018-07-03T08:30:21.362Z,0.90
2018-07-03T08:32:49.437Z,0.80
2018-07-03T08:35:17.410Z,1.17
2018-07-03T08:37:45.409Z,0.90
2018-07-03T08:40:13.408Z,1.10
2018-07-03T08:42:41.422Z,0.90
2018-07-03T08:45:09.467Z,1.23
2018-07-03T08:47:37.693Z,0.80
2018-07-03T08:50:05.692Z,0.83
2018-07-03T08:52:33.710Z,0.90
2018-07-03T08:55:01.812Z,1.47
2018-07-03T08:57:29.809Z,0.80
2018-07-03T08:59:57.810Z,1.40
2018-07-03T09:02:25.784Z,1.20
2018-07-03T09:04:53.839Z,1.10
2018-07-03T09:07:21.826Z,0.97
2018-07-03T09:09:49.827Z,0.80
2018-07-03T09:12:17.827Z,0.90
2018-07-03T09:14:45.807Z,0.90
2018-07-03T09:17:19.195Z,0.87
2018-07-03T09:19:47.176Z,1.07
2018-07-03T09:22:15.159Z,1.33
2018-07-03T09:24:43.131Z,1.33
2018-07-03T09:27:11.182Z,0.90
2018-07-03T09:29:39.170Z,0.90
2018-07-03T09:32:07.153Z,1.40
2018-07-03T09:34:35.147Z,1.20
2018-07-03T09:37:03.156Z,0.90
2018-07-03T09:39:31.143Z,0.80
2018-07-03T09:41:59.119Z,0.97
2018-07-03T09:44:27.099Z,0.80
2018-07-03T09:46:55.079Z,1.20
2018-07-03T09:49:23.105Z,1.00
2018-07-03T09:51:51.104Z,1.17
2018-07-03T09:54:19.088Z,1.10
2018-07-03T09:56:47.076Z,1.20
2018-07-03T09:59:15.179Z,1.03
2018-07-03T10:01:43.174Z,1.00
2018-07-03T10:04:11.177Z,0.83
2018-07-03T10:06:39.220Z,0.80
2018-07-03T10:09:08.610Z,0.70
2018-07-03T10:11:36.616Z,0.80
2018-07-03T10:14:04.638Z,0.80
2018-07-03T10:16:32.692Z,1.23
2018-07-03T10:19:00.749Z,1.87
2018-07-03T10:21:28.727Z,1.17
2018-07-03T10:23:56.726Z,1.00
2018-07-03T10:26:24.704Z,1.00
2018-07-03T10:28:53.277Z,1.20
2018-07-03T10:31:21.355Z,0.80
2018-07-03T10:33:49.339Z,1.10
2018-07-03T10:36:17.378Z,1.10
2018-07-03T10:38:45.414Z,0.97
2018-07-03T10:41:13.575Z,0.70
2018-07-03T10:43:41.597Z,1.20
2018-07-03T10:46:09.755Z,0.90
2018-07-03T10:48:37.752Z,0.90
2018-07-03T10:51:05.874Z,1.20
2018-07-03T10:53:33.878Z,0.80
2018-07-03T10:56:01.996Z,1.40
2018-07-03T10:58:30.012Z,0.87
2018-07-03T11:00:57.999Z,0.90
2018-07-03T11:03:25.862Z,0.90
2018-07-03T11:05:53.789Z,1.30
2018-07-03T11:08:21.788Z,1.07
2018-07-03T11:10:49.777Z,1.70
2018-07-03T11:13:17.822Z,1.20
2018-07-03T11:15:45.832Z,0.97
2018-07-03T11:18:13.964Z,0.97
2018-07-03T11:20:41.958Z,1.00
2018-07-03T11:23:10.013Z,0.97
2018-07-03T11:25:38.071Z,0.90
2018-07-03T11:28:06.099Z,0.90
2018-07-03T11:30:34.238Z,1.13
2018-07-03T11:33:02.390Z,1.10
2018-07-03T11:35:30.463Z,0.77
2018-07-03T11:37:58.464Z,1.00
2018-07-03T11:40:26.456Z,0.83
2018-07-03T11:42:54.564Z,0.73
2018-07-03T11:45:22.583Z,0.80
2018-07-03T11:47:50.585Z,1.00
2018-07-03T11:50:18.586Z,0.70
2018-07-03T11:52:46.612Z,0.97
2018-07-03T11:55:14.606Z,0.80
2018-07-03T11:57:42.619Z,0.93
2018-07-03T12:00:10.616Z,1.00
2018-07-03T12:02:38.616Z,1.03
2018-07-03T12:05:06.614Z,1.87
2018-07-03T12:07:34.725Z,0.93
2018-07-03T12:10:02.710Z,0.97
2018-07-03T12:12:30.806Z,1.33
2018-07-03T12:14:58.891Z,1.00
2018-07-03T12:17:26.878Z,1.00
2018-07-03T12:19:54.930Z,1.00
2018-07-03T12:22:22.906Z,0.90
2018-07-03T12:24:50.924Z,2.13
2018-07-03T12:27:19.027Z,0.90
2018-07-03T12:29:47.016Z,1.23
2018-07-03T12:32:15.025Z,1.40
2018-07-03T12:34:43.047Z,1.00
2018-07-03T12:37:11.160Z,0.80
2018-07-03T12:39:39.148Z,0.90
2018-07-03T12:42:07.254Z,1.07
2018-07-03T12:44:35.244Z,1.00
2018-07-03T12:47:03.246Z,1.00
2018-07-03T12:49:31.664Z,1.07
2018-07-03T12:51:59.726Z,1.30
2018-07-03T12:54:27.812Z,1.00
2018-07-03T12:56:55.884Z,1.00
2018-07-03T12:59:23.944Z,0.87
2018-07-03T13:01:51.926Z,1.17
2018-07-03T13:04:19.951Z,0.90
2018-07-03T13:06:47.981Z,1.00
2018-07-03T13:09:15.963Z,0.80
2018-07-03T13:11:43.970Z,1.23
2018-07-03T13:14:11.980Z,0.90
2018-07-03T13:16:40.000Z,0.87
2018-07-03T13:19:07.998Z,1.03
2018-07-03T13:21:35.992Z,1.10
2018-07-03T13:24:04.041Z,1.23
2018-07-03T13:26:32.042Z,1.07
2018-07-03T13:29:00.044Z,1.00
2018-07-03T13:31:28.106Z,1.07
2018-07-03T13:33:56.066Z,1.10
2018-07-03T13:36:24.123Z,0.90
2018-07-03T13:38:52.165Z,1.13
2018-07-03T13:41:20.166Z,1.30
2018-07-03T13:43:48.185Z,0.70
2018-07-03T13:46:16.170Z,1.00
2018-07-03T13:48:44.209Z,1.20
2018-07-03T13:51:12.363Z,0.90
2018-07-03T13:53:40.352Z,1.10
2018-07-03T13:56:09.436Z,0.90
2018-07-03T13:58:37.548Z,1.30
2018-07-03T14:01:05.556Z,2.27
2018-07-03T14:03:33.550Z,1.00
2018-07-03T14:06:01.578Z,0.93
2018-07-03T14:08:29.626Z,1.03
2018-07-03T14:10:57.698Z,0.90
2018-07-03T14:13:25.695Z,1.00
2018-07-03T14:15:53.505Z,0.80
2018-07-03T14:18:26.420Z,1.00
2018-07-03T14:20:56.114Z,1.10
2018-07-03T14:23:24.108Z,0.90
2018-07-03T14:25:52.144Z,0.90
2018-07-03T14:28:20.151Z,1.00
2018-07-03T14:30:47.977Z,1.10
2018-07-03T14:33:15.983Z,1.30
2018-07-03T14:35:44.030Z,1.07
2018-07-03T14:38:12.026Z,1.10
2018-07-03T14:40:40.020Z,0.80
2018-07-03T14:43:08.083Z,0.90
2018-07-03T14:45:36.065Z,0.77
2018-07-03T14:48:04.210Z,0.90
2018-07-03T14:50:32.192Z,0.97
2018-07-03T14:53:00.327Z,1.10
2018-07-03T14:55:28.389Z,0.80
2018-07-03T14:57:56.410Z,1.10
2018-07-03T15:00:24.407Z,0.80
2018-07-03T15:02:52.540Z,0.87
2018-07-03T15:05:20.502Z,0.80
2018-07-03T15:07:48.501Z,1.00
2018-07-03T15:10:16.611Z,1.50
2018-07-03T15:12:44.625Z,1.13
2018-07-03T15:15:12.635Z,0.80
2018-07-03T15:17:40.722Z,0.90
2018-07-03T15:20:08.769Z,0.87
2018-07-03T15:22:36.748Z,0.80
2018-07-03T15:25:04.901Z,0.90
2018-07-03T15:27:32.913Z,0.93
2018-07-03T15:30:00.989Z,1.03
2018-07-03T15:32:29.047Z,1.00
2018-07-03T15:34:57.075Z,1.97
2018-07-03T15:37:25.062Z,1.00
2018-07-03T15:39:53.077Z,0.80
2018-07-03T15:42:21.134Z,0.70
2018-07-03T15:45:00.774Z,1.00
2018-07-03T15:47:28.774Z,1.00
2018-07-03T15:49:56.867Z,1.00
2018-07-03T15:52:24.979Z,0.73
2018-07-03T15:54:52.966Z,0.90
2018-07-03T15:57:20.954Z,0.80
2018-07-03T15:59:48.952Z,1.20
2018-07-03T16:02:17.023Z,0.90
2018-07-03T16:04:55.407Z,0.97
2018-07-03T16:07:34.894Z,1.07
2018-07-03T16:10:02.867Z,0.93
2018-07-03T16:12:30.949Z,0.97
2018-07-03T16:14:58.947Z,0.80
2018-07-03T16:17:26.988Z,0.80
2018-07-03T16:20:00.543Z,0.80
2018-07-03T16:22:28.528Z,1.00
2018-07-03T16:24:56.700Z,0.90
2018-07-03T16:27:24.705Z,1.00
2018-07-03T16:29:52.704Z,0.90
2018-07-03T16:32:20.949Z,1.10
2018-07-03T16:34:48.935Z,1.20
2018-07-03T16:37:16.943Z,1.30
2018-07-03T16:39:44.942Z,1.73
2018-07-03T16:42:12.945Z,2.10
2018-07-03T16:44:41.134Z,2.17
2018-07-03T16:47:09.085Z,3.30
2018-07-03T16:49:37.102Z,2.57
2018-07-03T16:52:05.402Z,2.53
2018-07-03T16:54:33.419Z,1.63
2018-07-03T16:57:01.427Z,1.87
2018-07-03T16:59:29.422Z,1.57
2018-07-03T17:01:57.739Z,2.00
2018-07-03T17:04:25.746Z,2.20
2018-07-03T17:06:53.779Z,1.77
2018-07-03T17:09:21.808Z,2.10
2018-07-03T17:11:49.815Z,2.20
2018-07-03T17:14:17.823Z,2.50
2018-07-03T17:16:45.833Z,2.07
2018-07-03T17:19:19.328Z,2.40
2018-07-03T17:21:47.328Z,1.40
2018-07-03T17:24:15.338Z,1.37
2018-07-03T17:26:43.476Z,1.40
2018-07-03T17:29:11.455Z,1.40
2018-07-03T17:31:39.466Z,1.03
2018-07-03T17:34:07.487Z,1.93
2018-07-03T17:36:35.468Z,1.67
2018-07-03T17:39:10.426Z,1.50
2018-07-03T17:41:50.035Z,1.37
2018-07-03T17:44:34.490Z,1.13
2018-07-03T17:47:02.496Z,1.10
2018-07-03T17:49:30.501Z,1.10
2018-07-03T17:51:58.488Z,1.37
2018-07-03T17:54:26.507Z,1.10
2018-07-03T17:56:54.540Z,1.50
2018-07-03T17:59:22.676Z,1.20
2018-07-03T18:01:50.485Z,0.97
2018-07-03T18:04:18.509Z,1.33
2018-07-03T18:06:46.503Z,1.17
2018-07-03T18:09:14.623Z,0.97
2018-07-03T18:11:42.670Z,1.00
2018-07-03T18:14:10.759Z,1.20
2018-07-03T18:16:38.800Z,1.23
2018-07-03T18:19:12.230Z,1.30
2018-07-03T18:21:40.277Z,0.80
2018-07-03T18:24:08.258Z,1.07
2018-07-03T18:26:36.251Z,1.40
2018-07-03T18:29:04.327Z,1.00
2018-07-03T18:31:32.375Z,1.07
2018-07-03T18:34:00.164Z,1.13
2018-07-03T18:36:28.174Z,1.00
2018-07-03T18:38:56.274Z,1.20
2018-07-03T18:41:24.258Z,1.27
2018-07-03T18:43:52.679Z,1.50
2018-07-03T18:46:20.727Z,1.40
2018-07-03T18:48:48.659Z,1.60
2018-07-03T18:51:16.915Z,1.50
2018-07-03T18:53:44.948Z,1.50
2018-07-03T18:56:12.987Z,1.40
2018-07-03T18:58:40.961Z,1.43
2018-07-03T19:01:08.972Z,1.83
2018-07-03T19:03:37.048Z,1.57
2018-07-03T19:06:05.055Z,1.73
2018-07-03T19:08:33.050Z,1.40
2018-07-03T19:11:01.033Z,1.40
2018-07-03T19:13:29.071Z,1.33
2018-07-03T19:15:57.050Z,2.00
2018-07-03T19:18:25.033Z,1.47
2018-07-03T19:20:53.041Z,1.70
2018-07-03T19:23:21.160Z,1.50
2018-07-03T19:25:49.279Z,1.33
2018-07-03T19:28:17.263Z,1.60
2018-07-03T19:30:45.262Z,1.60
2018-07-03T19:33:13.350Z,1.63
2018-07-03T19:35:41.386Z,1.40
2018-07-03T19:38:09.392Z,1.60
2018-07-03T19:40:37.497Z,1.63
2018-07-03T19:43:22.010Z,2.17
2018-07-03T19:45:51.088Z,1.60
2018-07-03T19:48:19.579Z,1.57
2018-07-03T19:50:48.868Z,1.73
2018-07-03T19:53:16.867Z,2.10
2018-07-03T19:55:45.102Z,1.40
2018-07-03T19:58:13.086Z,1.63
2018-07-03T20:00:41.063Z,1.80
2018-07-03T20:03:09.126Z,1.37
2018-07-03T20:05:37.603Z,1.90
2018-07-03T20:08:06.085Z,1.57
2018-07-03T20:10:34.351Z,1.63
2018-07-03T20:13:02.376Z,2.10
2018-07-03T20:15:30.364Z,1.60
2018-07-03T20:17:58.675Z,2.00
2018-07-03T20:20:26.686Z,1.67
2018-07-03T20:22:54.730Z,1.90
2018-07-03T20:25:22.783Z,1.93
2018-07-03T20:27:50.854Z,2.03
2018-07-03T20:30:19.135Z,2.70
2018-07-03T20:32:47.235Z,2.20
2018-07-03T20:35:15.275Z,1.70
2018-07-03T20:37:51.373Z,2.17
2018-07-03T20:40:19.527Z,1.80
2018-07-03T20:42:47.540Z,1.73
2018-07-03T20:45:16.069Z,2.23
2018-07-03T20:47:44.344Z,2.30
2018-07-03T20:50:12.326Z,1.73
2018-07-03T20:52:40.335Z,1.80
2018-07-03T20:55:08.345Z,2.50
2018-07-03T20:57:36.417Z,2.10
2018-07-03T21:00:04.436Z,2.27
2018-07-03T21:02:33.256Z,1.87
2018-07-03T21:05:01.255Z,1.77
2018-07-03T21:07:29.251Z,1.70
2018-07-03T21:09:57.279Z,2.10
2018-07-03T21:12:25.327Z,1.93
2018-07-03T21:14:53.485Z,1.53
2018-07-03T21:17:21.475Z,1.70
2018-07-03T21:19:49.518Z,1.77
2018-07-03T21:22:17.535Z,1.80
2018-07-03T21:24:45.516Z,1.70
2018-07-03T21:27:13.627Z,1.33
2018-07-03T21:29:41.838Z,1.60
2018-07-03T21:32:09.787Z,1.83
2018-07-03T21:34:37.791Z,1.40
2018-07-03T21:37:05.774Z,1.67
2018-07-03T21:39:33.789Z,1.90
2018-07-03T21:42:01.787Z,1.40
2018-07-03T21:44:29.787Z,1.27
2018-07-03T21:46:57.842Z,1.70
2018-07-03T21:49:25.827Z,1.70
2018-07-03T21:51:54.032Z,1.50
2018-07-03T21:54:22.048Z,1.80
2018-07-03T21:56:50.163Z,2.10
2018-07-03T21:59:18.174Z,1.50
2018-07-03T22:01:46.172Z,2.20
2018-07-03T22:04:14.202Z,1.73
2018-07-03T22:06:42.210Z,1.60
2018-07-03T22:09:12.320Z,1.67
2018-07-03T22:11:40.298Z,1.30
2018-07-03T22:14:08.345Z,1.50
2018-07-03T22:16:36.327Z,1.57
2018-07-03T22:19:04.312Z,1.60
2018-07-03T22:21:32.362Z,1.53
2018-07-03T22:24:00.633Z,1.70
2018-07-03T22:26:28.630Z,1.80
2018-07-03T22:28:56.776Z,2.00
2018-07-03T22:31:24.771Z,1.60
2018-07-03T22:33:52.818Z,1.73
2018-07-03T22:36:20.992Z,1.60
2018-07-03T22:38:49.011Z,1.83
2018-07-03T22:41:17.054Z,1.70
2018-07-03T22:43:45.035Z,2.27
2018-07-03T22:46:13.029Z,1.30
2018-07-03T22:48:41.078Z,1.83
2018-07-03T22:51:09.130Z,1.90
2018-07-03T22:53:37.187Z,1.57
2018-07-03T22:56:05.363Z,1.80
2018-07-03T22:58:33.436Z,2.13
2018-07-03T23:01:01.391Z,1.50
2018-07-03T23:03:29.460Z,2.00
2018-07-03T23:05:57.466Z,1.73
2018-07-03T23:08:25.478Z,1.97
2018-07-03T23:10:53.478Z,1.40
2018-07-03T23:13:21.459Z,2.00
2018-07-03T23:15:49.455Z,1.57
2018-07-03T23:18:17.581Z,1.90
2018-07-03T23:20:45.570Z,1.53
2018-07-03T23:23:13.539Z,1.73
2018-07-03T23:25:41.523Z,1.30
2018-07-03T23:28:09.512Z,1.63
2018-07-03T23:30:37.495Z,1.63
2018-07-03T23:33:05.474Z,1.70
2018-07-03T23:35:33.486Z,2.10
2018-07-03T23:38:01.482Z,1.70
2018-07-03T23:40:29.464Z,2.00
2018-07-03T23:42:57.472Z,1.37
2018-07-03T23:45:29.651Z,1.50
2018-07-03T23:48:09.126Z,1.50
2018-07-03T23:50:48.444Z,1.37
2018-07-03T23:53:27.987Z,1.53
2018-07-03T23:56:07.523Z,1.73
2018-07-03T23:58:47.082Z,1.60
